Aérodrome :
LOGIN :

S'inscrire | Disclaimer

   EN    FR    IT 

 










Légende :    VFR   VFR Marginal   IFR   IFR Intensif   IFR Très Intensif
Visi : 
Plafond : 
>= 8 km
>= 3000ft
5 à 8 km
1000 à 3000 ft
1500m à 5 km
500 à 1000 ft
800 à 1500m
200 à 500 ft
< 800m
< 200 ft
Symboles :   Orages  Brouillard  Fortes neiges  Fortes précipitations  Vent > 20 kt
SIGMETs :   Divers  Orages  Givrage  Turbulence  Onde Orograph.  Cendres Volcan.







- Altitude de l'aérodrome : 584 ft
- Voir les cartes d'approche


LFPV - Villacoublay Vélizy

DERNIER METAR :
  • 220200Z AUTO 14007KT CAVOK 19/12 Q1007 NOSIG

METARs EXPIRÉS :
  • 220130Z AUTO 14006KT CAVOK 19/12 Q1008 NOSIG
  • 220100Z AUTO 15005KT CAVOK 20/12 Q1008 NOSIG
  • 220030Z AUTO 15007KT CAVOK 20/12 Q1008 NOSIG
  • 220000Z AUTO 14005KT CAVOK 20/12 Q1008 NOSIG
  • 212330Z AUTO 14007KT CAVOK 21/12 Q1008 NOSIG

TAF TAF LFPV
Valide du 21 à 21h jusqu'au 22 à 21h UTC


212000Z 2121/2221 13006KT CAVOK
BECMG 2207/2209 20010KT
TEMPO 2209/2213 4000 -RA BKN014
PROB40
TEMPO 2210/2212 2500 SHRA BKN008 BKN015CB
Pas de NOTAMs connus pour ce terrain.



MET'MAP, la Météo Aéronautique d'un coup d'oeil ! - Copyright ORBIFLY Décembre 2007 - Disclaimer

ORBIFLY MET'MAP TEAM :

Programmation & Développement : Alexandra Zaïnal
Conception & Développement : Baudouin d'Aumeries
Co-Programmation & Développement : Marc-Olivier Méhu
Soutien technique & logistique : Manuel Goepfert

Contact : metmap@orbifly.com




SOURCES & CREDITS :

   NOAA